Terminal Aerodrome Forecast
Issued by NWS Northern Indiana

Home | Current Version | Previous Version | Text Only | Print | Product List | Glossary Off
Versions: 1 2 3 4 5 6 7 8 9 10 11 12 13

000
FTUS43 KIWX 201700
TAFFWA
TAF
KFWA 201720Z 2018/2118 04008KT P6SM BKN100 OVC150
     FM210000 03007KT P6SM -SHRA BKN050 OVC080
     FM210500 01005KT P6SM OVC060
     FM211500 31008KT P6SM BKN080=

USA.gov is the U.S. government's official web portal to all federal, state and local government web resources and services.